Time;durP1;ratioP1;P1;durP2;ratioP2;P2;SDS_P1;SDS_P2;PMS_P1;PMS_P2;Temp;Humidity;BMP_temperature;BMP_pressure;BME280_temperature;BME280_humidity;BME280_pressure;Samples;Min_cycle;Max_cycle;Signal;HPM_P1;HPM_P2
2022/07/09 00:02:12;;;;;;;5.50;2.90;;;18.60;65.10;;;;;;5016137;28;20168;-66
2022/07/09 00:04:37;;;;;;;5.68;2.83;;;18.60;65.10;;;;;;5013377;28;20578;-69
2022/07/09 00:07:03;;;;;;;6.07;3.47;;;18.60;65.10;;;;;;5016491;28;20396;-69
2022/07/09 00:09:29;;;;;;;7.40;3.72;;;18.60;65.00;;;;;;5016242;28;20041;-69
2022/07/09 00:11:56;;;;;;;6.97;3.35;;;18.60;65.30;;;;;;5015701;28;20180;-69
2022/07/09 00:14:22;;;;;;;4.80;3.08;;;18.60;65.50;;;;;;5011787;28;20133;-70
2022/07/09 00:16:48;;;;;;;5.20;3.03;;;18.50;65.40;;;;;;5033774;28;20116;-70
2022/07/09 00:19:14;;;;;;;6.28;3.95;;;18.50;65.40;;;;;;4999664;28;20071;-69
2022/07/09 00:21:40;;;;;;;4.38;2.58;;;18.50;65.50;;;;;;4999789;28;20041;-69
2022/07/09 00:24:06;;;;;;;4.90;2.60;;;18.50;65.50;;;;;;5014866;28;20056;-69
2022/07/09 00:26:32;;;;;;;5.28;2.97;;;18.50;65.40;;;;;;5015695;28;20065;-66
2022/07/09 00:28:57;;;;;;;4.85;2.78;;;18.50;65.40;;;;;;5033477;28;20073;-67
2022/07/09 00:31:23;;;;;;;5.10;2.75;;;18.50;65.60;;;;;;5014759;28;20059;-66
2022/07/09 00:33:49;;;;;;;4.72;2.88;;;18.50;65.50;;;;;;5015483;28;20041;-67
2022/07/09 00:36:14;;;;;;;5.53;3.17;;;18.40;65.40;;;;;;5012004;28;20042;-66
2022/07/09 00:38:40;;;;;;;5.03;2.60;;;18.40;65.50;;;;;;5004559;28;20554;-66
2022/07/09 00:41:06;;;;;;;6.25;2.75;;;18.40;65.50;;;;;;4998820;28;20108;-66
2022/07/09 00:43:31;;;;;;;4.88;2.75;;;18.40;65.60;;;;;;5013702;28;20061;-66
2022/07/09 00:45:57;;;;;;;3.40;2.65;;;18.30;65.60;;;;;;5028740;28;20385;-66
2022/07/09 00:48:23;;;;;;;4.18;2.38;;;18.30;65.60;;;;;;4998666;28;20107;-66
2022/07/09 00:50:49;;;;;;;4.95;1.90;;;18.30;65.50;;;;;;4998648;28;20049;-66
2022/07/09 00:53:17;;;;;;;4.75;2.67;;;18.30;65.50;;;;;;4999214;28;20436;-66
2022/07/09 00:55:45;;;;;;;5.25;2.60;;;18.30;65.60;;;;;;5015326;28;20045;-66
2022/07/09 00:58:12;;;;;;;6.72;4.30;;;18.30;65.70;;;;;;5015116;28;20045;-66
2022/07/09 01:00:38;;;;;;;6.70;4.28;;;18.30;65.90;;;;;;5015464;28;20542;-66
2022/07/09 01:03:03;;;;;;;7.68;5.05;;;18.30;66.20;;;;;;5014778;28;20041;-66
2022/07/09 01:05:35;;;;;;;4.70;3.50;;;18.20;66.50;;;;;;5015172;28;20045;-66
2022/07/09 01:08:06;;;;;;;4.53;3.20;;;18.20;66.50;;;;;;4999911;28;20052;-67
2022/07/09 01:10:33;;;;;;;6.85;3.17;;;18.20;66.50;;;;;;5015423;28;20556;-67
2022/07/09 01:12:59;;;;;;;7.00;3.80;;;18.20;66.50;;;;;;4998311;28;20072;-67
2022/07/09 01:15:25;;;;;;;6.28;3.40;;;18.10;66.60;;;;;;5014908;28;20038;-66
2022/07/09 01:17:52;;;;;;;4.88;3.05;;;18.10;66.60;;;;;;5014403;28;20041;-66
2022/07/09 01:20:22;;;;;;;5.45;2.85;;;18.10;66.60;;;;;;5014502;28;20124;-67
2022/07/09 01:22:48;;;;;;;4.30;2.85;;;18.10;66.50;;;;;;4982658;28;20048;-67
2022/07/09 01:25:17;;;;;;;4.55;2.60;;;18.00;66.40;;;;;;5014767;28;20050;-67
2022/07/09 01:27:42;;;;;;;5.68;2.80;;;18.00;66.40;;;;;;5014385;28;20045;-67
2022/07/09 01:30:08;;;;;;;3.47;2.67;;;18.00;66.50;;;;;;5014763;28;20047;-67
2022/07/09 01:32:34;;;;;;;2.97;2.10;;;18.00;66.50;;;;;;5014177;28;20037;-67
2022/07/09 01:35:01;;;;;;;3.58;2.60;;;18.00;66.50;;;;;;4997961;28;20091;-67
2022/07/09 01:37:27;;;;;;;4.20;2.30;;;18.00;66.50;;;;;;5004437;28;20066;-67
2022/07/09 01:39:52;;;;;;;4.05;2.47;;;18.00;66.50;;;;;;4991737;28;20061;-67
2022/07/09 01:42:21;;;;;;;4.45;2.72;;;17.90;66.50;;;;;;5007440;28;20113;-67
2022/07/09 01:44:50;;;;;;;3.55;2.88;;;18.00;66.60;;;;;;4990399;28;20157;-67
2022/07/09 01:47:16;;;;;;;6.70;3.05;;;18.00;66.60;;;;;;4992040;28;20121;-67
2022/07/09 01:49:42;;;;;;;5.20;2.67;;;18.00;66.70;;;;;;4992017;28;20113;-67
2022/07/09 01:52:08;;;;;;;4.35;2.70;;;18.00;66.70;;;;;;4991593;28;20053;-67
2022/07/09 01:54:34;;;;;;;9.18;4.85;;;18.00;66.70;;;;;;4993158;28;20137;-70
2022/07/09 01:57:00;;;;;;;5.53;3.17;;;18.00;66.90;;;;;;4993174;28;20133;-69
2022/07/09 01:59:26;;;;;;;3.80;2.67;;;18.00;67.00;;;;;;4992727;28;20043;-67
2022/07/09 02:01:51;;;;;;;7.10;4.20;;;18.00;67.00;;;;;;4993157;28;20046;-67
2022/07/09 02:04:17;;;;;;;4.07;2.97;;;18.00;67.00;;;;;;4992178;28;20125;-67
2022/07/09 02:06:43;;;;;;;10.05;3.78;;;18.00;67.00;;;;;;4991571;28;20042;-67
2022/07/09 02:09:08;;;;;;;7.25;3.88;;;18.10;67.40;;;;;;4992030;28;20035;-67
2022/07/09 02:11:34;;;;;;;8.48;3.90;;;18.00;67.30;;;;;;4991626;28;20458;-67
2022/07/09 02:14:00;;;;;;;5.22;3.35;;;18.00;67.50;;;;;;4974186;28;20540;-67
2022/07/09 02:16:25;;;;;;;5.75;3.22;;;18.10;67.70;;;;;;4991587;28;20046;-67
2022/07/09 02:18:51;;;;;;;4.30;3.10;;;18.00;67.60;;;;;;4991519;28;20104;-67
2022/07/09 02:21:17;;;;;;;5.07;3.42;;;18.10;67.60;;;;;;4992931;28;20046;-67
2022/07/09 02:23:43;;;;;;;5.80;3.38;;;18.10;67.70;;;;;;4991563;28;20049;-69
2022/07/09 02:26:08;;;;;;;5.22;3.67;;;18.10;67.70;;;;;;4991269;28;20042;-70
2022/07/09 02:28:34;;;;;;;4.93;3.53;;;18.10;67.80;;;;;;4990125;28;20061;-69
2022/07/09 02:31:00;;;;;;;5.65;3.42;;;18.10;68.20;;;;;;4991576;28;20101;-70
2022/07/09 02:33:25;;;;;;;4.43;2.92;;;18.10;67.70;;;;;;4991006;28;20051;-70
2022/07/09 02:35:51;;;;;;;6.65;3.85;;;18.10;67.50;;;;;;4991913;28;20053;-70
2022/07/09 02:38:17;;;;;;;7.75;4.32;;;18.10;67.60;;;;;;4975512;28;20430;-70
2022/07/09 02:40:42;;;;;;;10.60;5.00;;;18.10;67.70;;;;;;4991705;28;20390;-70
2022/07/09 02:43:08;;;;;;;6.25;4.60;;;18.10;68.00;;;;;;5001082;28;20387;-69
2022/07/09 02:45:34;;;;;;;8.02;4.00;;;18.10;68.20;;;;;;5010939;28;20057;-70
2022/07/09 02:47:59;;;;;;;9.63;5.05;;;18.10;68.10;;;;;;5012600;28;20046;-70
2022/07/09 02:50:25;;;;;;;9.00;5.45;;;18.00;68.20;;;;;;5014301;28;20034;-70
2022/07/09 02:52:51;;;;;;;6.85;6.15;;;18.10;68.40;;;;;;5014686;28;20033;-70
2022/07/09 02:55:16;;;;;;;6.10;4.75;;;18.00;68.50;;;;;;4997646;28;20490;-70
2022/07/09 02:57:42;;;;;;;9.15;5.93;;;18.00;68.60;;;;;;5013700;28;20096;-71
2022/07/09 03:00:08;;;;;;;6.75;4.55;;;18.00;68.80;;;;;;5014053;28;20042;-70
2022/07/09 03:02:34;;;;;;;11.02;6.15;;;18.00;68.80;;;;;;5015695;28;20034;-70
2022/07/09 03:05:00;;;;;;;10.85;5.38;;;18.00;69.00;;;;;;5013922;28;20064;-70
2022/07/09 03:07:26;;;;;;;8.40;4.93;;;18.00;69.30;;;;;;5013874;28;20045;-70
2022/07/09 03:09:52;;;;;;;7.22;4.00;;;18.00;69.30;;;;;;5015453;28;20396;-70
2022/07/09 03:12:18;;;;;;;5.53;4.05;;;18.00;69.50;;;;;;5013730;28;20034;-70
2022/07/09 03:14:44;;;;;;;7.20;5.65;;;18.00;68.90;;;;;;5014330;28;20124;-70
2022/07/09 03:17:09;;;;;;;8.20;6.25;;;18.00;69.10;;;;;;4997699;28;20465;-70
2022/07/09 03:19:35;;;;;;;8.65;5.90;;;17.90;69.20;;;;;;5014026;28;20129;-69
2022/07/09 03:22:01;;;;;;;8.57;5.63;;;18.00;69.50;;;;;;5013642;28;20045;-70
2022/07/09 03:24:26;;;;;;;4.97;3.78;;;18.00;69.60;;;;;;5013920;28;20104;-70
2022/07/09 03:26:52;;;;;;;5.97;4.40;;;18.00;69.40;;;;;;5012490;28;20038;-70
2022/07/09 03:29:18;;;;;;;6.00;4.05;;;18.00;69.10;;;;;;5013915;28;20073;-69
2022/07/09 03:31:43;;;;;;;5.75;4.00;;;17.90;68.90;;;;;;4997090;28;20037;-69
2022/07/09 03:34:09;;;;;;;6.53;3.70;;;18.00;68.90;;;;;;4997882;28;20370;-70
2022/07/09 03:36:36;;;;;;;5.13;3.30;;;17.90;68.70;;;;;;5013413;28;20390;-69
2022/07/09 03:39:02;;;;;;;4.97;3.00;;;17.90;68.50;;;;;;5013580;28;20046;-69
2022/07/09 03:41:27;;;;;;;5.40;3.67;;;17.90;68.30;;;;;;5011889;28;20124;-70
2022/07/09 03:43:53;;;;;;;3.33;2.75;;;17.90;68.20;;;;;;5013471;28;20188;-70
2022/07/09 03:46:19;;;;;;;5.85;3.00;;;18.00;68.10;;;;;;5013339;28;20425;-70
2022/07/09 03:48:46;;;;;;;4.88;2.95;;;17.90;67.90;;;;;;5013737;28;20045;-69
2022/07/09 03:51:12;;;;;;;4.22;3.00;;;18.00;67.90;;;;;;5013232;28;20131;-66
2022/07/09 03:53:37;;;;;;;4.53;3.17;;;18.00;67.90;;;;;;5013159;28;20080;-70
2022/07/09 03:56:04;;;;;;;4.85;2.95;;;18.00;67.90;;;;;;5012674;28;20033;-70
2022/07/09 03:58:29;;;;;;;4.72;2.90;;;17.90;67.80;;;;;;4996898;28;20034;-70
2022/07/09 04:00:55;;;;;;;5.30;2.78;;;18.00;67.80;;;;;;5014467;28;20046;-70
2022/07/09 04:03:21;;;;;;;4.10;3.20;;;18.00;67.70;;;;;;4996607;28;20033;-70
2022/07/09 04:05:47;;;;;;;5.40;4.32;;;18.00;67.70;;;;;;5014485;28;20050;-70
2022/07/09 04:08:13;;;;;;;3.90;3.15;;;18.00;67.70;;;;;;5013104;28;20030;-69
2022/07/09 04:10:38;;;;;;;5.05;3.33;;;18.00;67.70;;;;;;5012270;28;20436;-69
2022/07/09 04:13:04;;;;;;;6.78;3.35;;;17.90;67.70;;;;;;4996743;28;20064;-69
2022/07/09 04:15:32;;;;;;;3.95;2.42;;;17.90;67.80;;;;;;5013478;28;20042;-69
2022/07/09 04:17:58;;;;;;;5.35;3.38;;;18.00;67.90;;;;;;5012837;28;20133;-69
2022/07/09 04:20:25;;;;;;;4.70;3.20;;;18.00;67.90;;;;;;5013317;28;20124;-70
2022/07/09 04:22:51;;;;;;;7.85;5.05;;;17.90;68.30;;;;;;5009817;28;20046;-69
2022/07/09 04:25:17;;;;;;;5.22;3.88;;;18.00;68.00;;;;;;5013503;28;20060;-69
2022/07/09 04:27:43;;;;;;;7.65;3.92;;;18.00;68.20;;;;;;5012443;28;20030;-69
2022/07/09 04:30:09;;;;;;;7.28;4.07;;;18.00;68.20;;;;;;5013126;28;20049;-69
2022/07/09 04:32:36;;;;;;;6.13;3.88;;;18.00;68.30;;;;;;5012974;28;20091;-69
2022/07/09 04:35:02;;;;;;;4.72;3.75;;;18.00;68.40;;;;;;5011669;28;20049;-70
2022/07/09 04:37:27;;;;;;;8.75;5.45;;;18.00;68.50;;;;;;5013869;28;20042;-70
2022/07/09 04:39:53;;;;;;;6.13;3.92;;;18.00;68.60;;;;;;5011579;28;20037;-69
2022/07/09 04:42:20;;;;;;;8.32;4.43;;;17.90;68.70;;;;;;4996079;28;20515;-69
2022/07/09 04:44:46;;;;;;;5.07;4.40;;;18.00;68.80;;;;;;4995800;28;20050;-69
2022/07/09 04:47:12;;;;;;;7.13;4.43;;;17.90;68.90;;;;;;5011788;28;20034;-69
2022/07/09 04:49:38;;;;;;;7.00;4.50;;;18.00;69.20;;;;;;5010799;28;20034;-69
2022/07/09 04:52:04;;;;;;;6.47;4.20;;;18.00;69.40;;;;;;5012481;28;20048;-69
2022/07/09 04:54:30;;;;;;;6.20;3.80;;;18.00;69.50;;;;;;4995216;28;20046;-69
2022/07/09 04:56:56;;;;;;;6.45;4.25;;;18.00;69.50;;;;;;5012134;28;20045;-70
2022/07/09 04:59:21;;;;;;;8.63;5.82;;;18.00;69.60;;;;;;5012448;28;20053;-69
2022/07/09 05:01:48;;;;;;;7.72;5.00;;;18.00;69.80;;;;;;5011470;28;20037;-69
2022/07/09 05:04:13;;;;;;;6.50;4.82;;;18.00;70.40;;;;;;5010524;28;20046;-70
2022/07/09 05:06:40;;;;;;;6.32;4.53;;;18.10;70.30;;;;;;5007152;28;20036;-69
2022/07/09 05:09:05;;;;;;;7.45;5.43;;;18.10;70.30;;;;;;4995611;28;20489;-69
2022/07/09 05:11:32;;;;;;;5.85;4.13;;;18.10;70.30;;;;;;5011630;28;20124;-69
2022/07/09 05:13:58;;;;;;;5.57;4.18;;;18.10;70.30;;;;;;5011567;28;20053;-69
2022/07/09 05:16:24;;;;;;;5.60;3.90;;;18.20;70.20;;;;;;5010214;28;20050;-69
2022/07/09 05:18:49;;;;;;;5.47;3.75;;;18.20;70.10;;;;;;5011637;28;20046;-69
2022/07/09 05:21:15;;;;;;;5.80;3.97;;;18.20;70.40;;;;;;5004347;28;20038;-69
2022/07/09 05:23:41;;;;;;;4.82;3.35;;;18.20;70.10;;;;;;5012284;28;20049;-69
2022/07/09 05:26:06;;;;;;;3.67;3.03;;;18.20;70.10;;;;;;5012145;28;20049;-69
2022/07/09 05:28:32;;;;;;;7.40;3.60;;;18.20;69.80;;;;;;5012476;28;20497;-69
2022/07/09 05:30:58;;;;;;;4.95;3.80;;;18.30;69.80;;;;;;5011730;28;20045;-69
2022/07/09 05:33:24;;;;;;;6.70;4.20;;;18.30;69.90;;;;;;5011781;28;20401;-69
2022/07/09 05:35:49;;;;;;;6.10;4.18;;;18.30;70.30;;;;;;5011447;28;20034;-67
2022/07/09 05:38:15;;;;;;;7.60;4.72;;;18.40;70.70;;;;;;5011562;28;20038;-67
2022/07/09 05:40:41;;;;;;;7.35;4.80;;;18.40;71.10;;;;;;5011609;28;20073;-67
2022/07/09 05:43:06;;;;;;;6.70;4.15;;;18.50;71.30;;;;;;5010620;28;20046;-67
2022/07/09 05:45:32;;;;;;;8.27;4.97;;;18.60;71.50;;;;;;5011611;28;20125;-67
2022/07/09 05:47:58;;;;;;;6.88;4.68;;;18.60;71.60;;;;;;4995032;28;20045;-67
2022/07/09 05:50:23;;;;;;;6.78;4.28;;;18.70;71.60;;;;;;5011204;28;20042;-67
2022/07/09 05:52:49;;;;;;;6.13;3.90;;;18.80;71.80;;;;;;4995312;28;20500;-67
2022/07/09 05:55:16;;;;;;;5.82;4.07;;;18.90;71.60;;;;;;4994096;28;20084;-67
2022/07/09 05:57:42;;;;;;;7.28;3.90;;;19.00;71.10;;;;;;5011160;28;20042;-67
2022/07/09 06:00:08;;;;;;;7.60;4.32;;;19.10;71.00;;;;;;5010825;28;20496;-67
2022/07/09 06:02:34;;;;;;;7.63;3.80;;;19.20;70.90;;;;;;4995324;28;20481;-67
2022/07/09 06:04:59;;;;;;;5.57;3.72;;;19.30;70.70;;;;;;5011168;28;20073;-66
2022/07/09 06:07:25;;;;;;;6.43;3.72;;;19.30;70.40;;;;;;5011938;28;20033;-66
2022/07/09 06:09:51;;;;;;;6.03;3.53;;;19.40;70.20;;;;;;4995033;28;20421;-66
2022/07/09 06:12:16;;;;;;;6.47;3.10;;;19.50;70.00;;;;;;5010306;28;20038;-66
2022/07/09 06:14:42;;;;;;;7.10;3.60;;;19.50;69.60;;;;;;5012178;28;20059;-66
2022/07/09 06:17:07;;;;;;;6.45;3.70;;;19.60;69.50;;;;;;5012218;28;20030;-66
2022/07/09 06:19:34;;;;;;;6.57;3.55;;;19.60;69.80;;;;;;5011103;28;20049;-66
2022/07/09 06:22:00;;;;;;;5.35;3.28;;;19.60;69.30;;;;;;4994421;28;20643;-66
2022/07/09 06:24:25;;;;;;;7.13;3.10;;;19.60;69.20;;;;;;5015899;28;20037;-66
2022/07/09 06:26:51;;;;;;;3.72;2.63;;;19.60;69.60;;;;;;5013412;28;20041;-66
2022/07/09 06:29:17;;;;;;;5.80;2.95;;;19.70;69.00;;;;;;5014646;28;20120;-66
2022/07/09 06:31:42;;;;;;;4.85;3.67;;;19.70;68.90;;;;;;5014690;28;20038;-66
2022/07/09 06:34:10;;;;;;;4.80;3.30;;;19.70;68.90;;;;;;4997609;28;20053;-66
2022/07/09 06:36:35;;;;;;;5.00;2.92;;;19.70;68.90;;;;;;5014031;28;20099;-66
2022/07/09 06:41:46;;;;;;;4.25;3.00;;;19.60;68.70;;;;;;5007677;28;20061;-66
2022/07/09 06:44:11;;;;;;;4.80;3.00;;;19.60;68.70;;;;;;5014311;28;20133;-66
2022/07/09 06:46:38;;;;;;;7.03;2.92;;;19.60;68.70;;;;;;5013627;28;20125;-66
2022/07/09 06:49:04;;;;;;;3.58;2.78;;;19.60;68.70;;;;;;5011481;28;20042;-65
2022/07/09 06:51:30;;;;;;;5.93;3.47;;;19.70;68.90;;;;;;5013698;28;20064;-66
2022/07/09 06:53:55;;;;;;;4.63;3.03;;;19.70;69.00;;;;;;4998395;28;20045;-66
2022/07/09 06:56:22;;;;;;;4.85;2.67;;;19.70;69.00;;;;;;5014269;28;20132;-67
2022/07/09 06:58:48;;;;;;;6.53;3.40;;;19.70;69.00;;;;;;5013804;28;20041;-67
2022/07/09 07:01:14;;;;;;;7.07;3.70;;;19.80;68.90;;;;;;5013298;28;20046;-65
2022/07/09 07:03:39;;;;;;;6.50;2.90;;;19.80;68.80;;;;;;5014255;28;20084;-66
2022/07/09 07:06:05;;;;;;;6.53;3.20;;;19.90;68.70;;;;;;5014103;28;20172;-69
2022/07/09 07:08:31;;;;;;;3.63;2.25;;;19.90;68.70;;;;;;5010229;28;20044;-69
2022/07/09 07:10:56;;;;;;;6.72;2.83;;;19.90;68.50;;;;;;5013981;28;20042;-69
2022/07/09 07:13:22;;;;;;;4.60;2.72;;;19.90;68.50;;;;;;5015269;28;20042;-69
2022/07/09 07:15:49;;;;;;;4.53;2.75;;;20.00;68.60;;;;;;5013192;28;20389;-69
2022/07/09 07:18:16;;;;;;;6.35;2.80;;;20.10;68.30;;;;;;4997879;28;20046;-67
2022/07/09 07:20:43;;;;;;;4.57;2.60;;;20.10;68.40;;;;;;5000467;28;20046;-66
2022/07/09 07:23:08;;;;;;;4.07;2.58;;;20.20;68.50;;;;;;5010396;28;20042;-66
2022/07/09 07:25:34;;;;;;;4.10;1.85;;;20.20;68.10;;;;;;5013032;28;20112;-67
2022/07/09 07:28:01;;;;;;;5.00;2.25;;;20.30;67.90;;;;;;5014001;28;20042;-67
2022/07/09 07:30:27;;;;;;;5.38;2.25;;;20.30;67.60;;;;;;5013810;28;20045;-67
2022/07/09 07:32:53;;;;;;;4.85;2.30;;;20.40;67.20;;;;;;5013376;28;20128;-67
2022/07/09 07:35:18;;;;;;;3.30;2.10;;;20.40;67.10;;;;;;5013140;28;20125;-67
2022/07/09 07:37:44;;;;;;;2.78;1.70;;;20.50;66.80;;;;;;4980667;28;20045;-67
2022/07/09 07:40:10;;;;;;;5.65;2.40;;;20.50;66.60;;;;;;5013263;28;20499;-67
2022/07/09 07:42:36;;;;;;;4.00;2.00;;;20.50;66.40;;;;;;5020629;28;20390;-67
2022/07/09 07:45:02;;;;;;;6.97;2.58;;;20.50;65.80;;;;;;5016759;28;20042;-65
2022/07/09 07:47:27;;;;;;;3.20;1.80;;;20.50;65.40;;;;;;5015910;28;20436;-65
2022/07/09 07:49:54;;;;;;;3.90;1.80;;;20.60;65.50;;;;;;5015464;28;20041;-66
2022/07/09 07:52:20;;;;;;;4.53;2.15;;;20.50;65.50;;;;;;5015001;28;20041;-66
2022/07/09 07:54:46;;;;;;;4.30;1.77;;;20.60;65.50;;;;;;5016297;28;20094;-67
2022/07/09 07:57:11;;;;;;;4.05;1.80;;;20.60;65.20;;;;;;5016753;28;20168;-66
2022/07/09 07:59:37;;;;;;;2.30;1.52;;;20.60;64.90;;;;;;5016233;28;20552;-66
2022/07/09 08:02:03;;;;;;;2.58;1.88;;;20.60;64.90;;;;;;5034037;28;20045;-65
2022/07/09 08:04:28;;;;;;;4.57;1.60;;;20.60;64.90;;;;;;5015258;28;20085;-66
2022/07/09 08:06:54;;;;;;;3.33;1.77;;;20.60;65.10;;;;;;5014992;28;20485;-67
2022/07/09 08:09:20;;;;;;;4.10;1.70;;;20.60;65.20;;;;;;5034328;28;20095;-66
2022/07/09 08:11:46;;;;;;;4.90;1.95;;;20.60;65.20;;;;;;5032384;28;20033;-66
2022/07/09 08:14:12;;;;;;;3.70;2.00;;;20.60;65.20;;;;;;5031391;28;20103;-66
2022/07/09 08:16:37;;;;;;;2.20;1.50;;;20.70;65.20;;;;;;4997992;28;20041;-66
2022/07/09 08:19:03;;;;;;;4.53;1.90;;;20.70;65.10;;;;;;5028237;28;20091;-66
2022/07/09 08:21:29;;;;;;;2.85;1.58;;;20.70;64.80;;;;;;5016602;28;20056;-66
2022/07/09 08:23:55;;;;;;;3.03;1.75;;;20.70;64.70;;;;;;5015765;28;20546;-66
2022/07/09 08:26:25;;;;;;;4.13;1.80;;;20.70;64.80;;;;;;5015572;28;20096;-67
2022/07/09 08:28:51;;;;;;;4.57;1.70;;;20.70;64.70;;;;;;5015997;28;20387;-67
2022/07/09 08:31:18;;;;;;;5.25;2.15;;;20.70;64.60;;;;;;5013086;28;20144;-66
2022/07/09 08:33:44;;;;;;;2.58;1.70;;;20.80;64.70;;;;;;5010088;28;20033;-70
2022/07/09 08:36:10;;;;;;;3.50;1.70;;;20.80;64.50;;;;;;5011979;28;20030;-70
2022/07/09 08:38:36;;;;;;;4.40;2.25;;;20.90;64.70;;;;;;5011323;28;20033;-68
2022/07/09 08:41:04;;;;;;;4.32;1.63;;;20.90;64.30;;;;;;5011925;28;20052;-70
2022/07/09 08:43:33;;;;;;;4.88;1.65;;;21.00;63.90;;;;;;5008103;28;20421;-70
2022/07/09 08:46:00;;;;;;;3.55;1.50;;;21.10;63.80;;;;;;5006633;28;20064;-70
2022/07/09 08:48:26;;;;;;;3.45;1.50;;;21.10;63.40;;;;;;5024310;28;20056;-70
2022/07/09 08:50:52;;;;;;;3.05;1.48;;;21.20;63.60;;;;;;5009440;28;20034;-70
2022/07/09 08:53:18;;;;;;;2.90;1.45;;;21.20;63.40;;;;;;5011706;28;20042;-69
2022/07/09 08:55:47;;;;;;;5.03;1.60;;;21.30;62.90;;;;;;5011657;28;20046;-69
2022/07/09 08:58:14;;;;;;;4.60;1.85;;;21.30;62.80;;;;;;5011209;28;20045;-69
2022/07/09 09:00:40;;;;;;;4.45;1.52;;;21.40;63.20;;;;;;5010680;28;20045;-68
2022/07/09 09:03:06;;;;;;;5.28;1.35;;;21.40;62.80;;;;;;4995409;28;20048;-69
2022/07/09 09:05:32;;;;;;;5.25;1.40;;;21.50;63.00;;;;;;5010577;28;20038;-70
2022/07/09 09:07:58;;;;;;;4.22;1.20;;;21.50;62.10;;;;;;5012098;28;20060;-72
2022/07/09 09:10:26;;;;;;;4.75;1.30;;;21.60;62.00;;;;;;5009847;28;20116;-72
2022/07/09 09:13:01;;;;;;;3.85;1.40;;;21.70;61.90;;;;;;4993997;28;20072;-72
2022/07/09 09:15:27;;;;;;;3.42;1.48;;;21.70;61.30;;;;;;5010953;28;20041;-72
2022/07/09 09:17:53;;;;;;;5.30;1.85;;;21.70;60.80;;;;;;5011327;28;20116;-71
2022/07/09 09:20:19;;;;;;;3.38;1.20;;;21.70;60.40;;;;;;5010532;28;20129;-71
2022/07/09 09:22:51;;;;;;;3.22;1.10;;;21.70;60.50;;;;;;5013302;28;20074;-71
2022/07/09 09:25:21;;;;;;;4.15;1.42;;;21.70;60.80;;;;;;5011879;28;20056;-73
2022/07/09 09:27:59;;;;;;;3.47;1.20;;;21.80;60.90;;;;;;5010544;28;20490;-71
2022/07/09 09:30:27;;;;;;;3.75;1.27;;;21.80;60.50;;;;;;5005870;28;20120;-72
2022/07/09 09:32:57;;;;;;;4.45;1.00;;;21.80;60.50;;;;;;4996073;28;20481;-72
2022/07/09 09:35:24;;;;;;;3.88;1.20;;;21.90;59.90;;;;;;5007950;28;20081;-72
2022/07/09 09:37:50;;;;;;;3.30;1.10;;;22.00;59.80;;;;;;4992340;28;20046;-72
2022/07/09 09:40:17;;;;;;;3.70;1.30;;;22.10;59.80;;;;;;4995426;28;20048;-71
2022/07/09 09:42:45;;;;;;;2.75;0.90;;;22.20;59.30;;;;;;5004087;28;20086;-72
2022/07/09 09:45:14;;;;;;;4.32;1.15;;;22.20;59.10;;;;;;4992033;28;20086;-72
2022/07/09 09:47:47;;;;;;;3.58;1.20;;;22.40;59.20;;;;;;4991348;28;20080;-72
2022/07/09 09:50:24;;;;;;;3.10;0.95;;;22.50;58.80;;;;;;4987592;28;20069;-72
2022/07/09 09:52:52;;;;;;;1.83;0.85;;;22.60;58.30;;;;;;4991873;28;20034;-72
2022/07/09 09:55:19;;;;;;;2.10;0.85;;;22.70;58.10;;;;;;4991805;28;20105;-71
2022/07/09 09:57:45;;;;;;;3.60;1.17;;;22.80;57.00;;;;;;4994696;28;20096;-70
2022/07/09 10:00:13;;;;;;;2.20;0.90;;;22.80;56.90;;;;;;4979807;28;20042;-70
2022/07/09 10:02:43;;;;;;;2.13;1.20;;;22.90;56.60;;;;;;4978859;28;20552;-71
2022/07/09 10:05:09;;;;;;;10.57;1.90;;;22.90;56.70;;;;;;4978508;28;20046;-71
2022/07/09 10:07:35;;;;;;;5.40;1.40;;;23.00;56.50;;;;;;4994705;28;20054;-71
2022/07/09 10:10:01;;;;;;;4.00;1.08;;;23.00;56.30;;;;;;4995569;28;20034;-72
2022/07/09 10:12:28;;;;;;;2.67;1.00;;;23.10;55.90;;;;;;4979055;28;20046;-71
2022/07/09 10:14:54;;;;;;;4.07;1.45;;;23.20;55.90;;;;;;4993041;28;20046;-71
2022/07/09 10:17:19;;;;;;;4.25;1.02;;;23.30;55.80;;;;;;4975368;28;20517;-71
2022/07/09 10:19:53;;;;;;;2.92;0.88;;;23.30;55.50;;;;;;4992878;28;20042;-72
2022/07/09 10:22:19;;;;;;;2.55;1.00;;;23.30;55.00;;;;;;4992191;28;20050;-72
2022/07/09 10:24:48;;;;;;;3.08;0.70;;;23.20;54.80;;;;;;4992308;28;20041;-73
2022/07/09 10:27:14;;;;;;;2.58;0.90;;;23.20;54.70;;;;;;4990976;28;20046;-73
2022/07/09 10:29:59;;;;;;;2.35;0.93;;;23.20;54.50;;;;;;4990819;28;20053;-73
2022/07/09 10:32:30;;;;;;;3.85;1.15;;;23.20;54.30;;;;;;4991679;28;20046;-72
2022/07/09 10:35:06;;;;;;;4.85;0.90;;;23.10;53.80;;;;;;4991548;28;20061;-72
2022/07/09 10:37:42;;;;;;;4.10;1.00;;;23.10;53.90;;;;;;4990830;28;20042;-73
2022/07/09 10:40:14;;;;;;;5.50;0.95;;;23.10;53.90;;;;;;4990581;28;20095;-71
2022/07/09 10:42:42;;;;;;;5.83;1.80;;;23.10;54.20;;;;;;4989072;28;20054;-71
2022/07/09 10:45:27;;;;;;;3.10;1.00;;;23.00;54.10;;;;;;4991054;28;20575;-73
2022/07/09 10:47:58;;;;;;;2.08;0.80;;;22.90;54.30;;;;;;4991300;28;20045;-72
2022/07/09 10:50:27;;;;;;;3.20;0.93;;;22.90;54.20;;;;;;4991352;28;20441;-73
2022/07/09 10:52:53;;;;;;;3.42;0.95;;;22.80;54.00;;;;;;4991048;28;20066;-73
2022/07/09 10:55:20;;;;;;;3.42;0.95;;;22.80;54.30;;;;;;4973163;28;20046;-72
2022/07/09 10:57:46;;;;;;;4.43;1.15;;;22.90;54.90;;;;;;4992448;28;20038;-73
2022/07/09 11:00:16;;;;;;;1.88;0.73;;;22.90;54.70;;;;;;4989676;28;20544;-73
2022/07/09 11:02:51;;;;;;;3.78;0.82;;;22.90;54.90;;;;;;4990251;28;20101;-74
2022/07/09 11:05:17;;;;;;;4.45;1.15;;;23.10;55.20;;;;;;4990496;28;20050;-72
2022/07/09 11:07:53;;;;;;;5.97;1.20;;;23.10;55.00;;;;;;4972732;28;20509;-72
2022/07/09 11:10:20;;;;;;;4.53;1.00;;;23.20;54.20;;;;;;4988710;28;20093;-73
2022/07/09 11:12:49;;;;;;;5.25;1.40;;;23.20;53.40;;;;;;4989597;28;20070;-74
2022/07/09 11:15:19;;;;;;;4.40;1.27;;;23.20;53.30;;;;;;4989089;28;20481;-73
2022/07/09 11:18:19;;;;;;;2.95;1.33;;;23.20;53.30;;;;;;4990630;28;20100;-73
2022/07/09 11:20:46;;;;;;;3.92;1.33;;;23.10;53.10;;;;;;4984307;28;20081;-74
2022/07/09 11:23:14;;;;;;;3.58;1.05;;;23.00;54.00;;;;;;4990444;28;20077;-74
2022/07/09 11:25:43;;;;;;;5.88;1.45;;;23.00;54.40;;;;;;4989814;28;20038;-74
2022/07/09 11:28:08;;;;;;;4.65;1.30;;;23.10;54.50;;;;;;4988987;28;20109;-72
2022/07/09 11:30:36;;;;;;;4.88;1.45;;;23.10;54.50;;;;;;4988195;28;20562;-72
2022/07/09 11:33:02;;;;;;;6.80;1.60;;;23.10;54.60;;;;;;4990079;28;20048;-73
2022/07/09 11:35:34;;;;;;;6.88;1.75;;;23.00;54.50;;;;;;4973399;28;20043;-72
2022/07/09 11:38:06;;;;;;;5.20;1.50;;;22.90;55.30;;;;;;4971885;28;20125;-72
2022/07/09 11:40:32;;;;;;;6.22;1.10;;;22.90;55.90;;;;;;4987072;28;20121;-72
2022/07/09 11:42:58;;;;;;;5.85;1.80;;;22.90;55.00;;;;;;4998077;28;20057;-73
2022/07/09 11:45:28;;;;;;;5.07;1.75;;;22.80;55.20;;;;;;5009437;28;20077;-72
2022/07/09 11:48:09;;;;;;;8.98;1.95;;;22.80;55.60;;;;;;5008034;28;20722;-72
2022/07/09 11:50:45;;;;;;;5.78;1.65;;;22.80;55.10;;;;;;5006863;28;20132;-73
2022/07/09 11:53:25;;;;;;;5.47;1.63;;;22.80;55.10;;;;;;4992392;28;20042;-73
2022/07/09 11:56:03;;;;;;;6.18;1.77;;;22.80;54.10;;;;;;5011869;28;20049;-73
2022/07/09 11:58:29;;;;;;;5.10;1.10;;;22.70;53.80;;;;;;5011482;28;20628;-73
2022/07/09 12:00:55;;;;;;;6.18;2.25;;;22.60;54.30;;;;;;4995769;28;20048;-73
2022/07/09 12:03:25;;;;;;;11.65;2.20;;;22.60;54.80;;;;;;5009552;28;20052;-72
2022/07/09 12:05:51;;;;;;;8.18;1.73;;;22.60;54.50;;;;;;5012902;28;20405;-73
2022/07/09 12:08:30;;;;;;;3.90;1.80;;;22.50;54.00;;;;;;5012260;28;20049;-72
2022/07/09 12:10:57;;;;;;;3.60;1.30;;;22.50;55.00;;;;;;5007799;28;20038;-73
2022/07/09 12:13:23;;;;;;;3.33;1.20;;;22.60;55.50;;;;;;5005873;28;20040;-73
2022/07/09 12:15:48;;;;;;;5.53;1.63;;;22.70;55.70;;;;;;5014100;28;20128;-73
2022/07/09 12:18:14;;;;;;;7.10;1.70;;;22.80;54.90;;;;;;5012769;28;20037;-72
2022/07/09 12:20:40;;;;;;;5.22;1.10;;;22.90;53.80;;;;;;5012483;28;20117;-72
2022/07/09 12:23:05;;;;;;;6.50;1.33;;;22.90;53.10;;;;;;4995862;28;20060;-72
2022/07/09 12:25:31;;;;;;;5.78;1.13;;;22.80;53.20;;;;;;4995501;28;20099;-73
2022/07/09 12:27:57;;;;;;;5.72;1.25;;;22.80;53.00;;;;;;5012278;28;20455;-72
2022/07/09 12:30:23;;;;;;;4.00;1.23;;;22.80;53.30;;;;;;5013335;28;20041;-73
2022/07/09 12:32:49;;;;;;;5.32;0.88;;;22.90;52.40;;;;;;5012922;28;20037;-72
2022/07/09 12:35:15;;;;;;;3.97;0.80;;;22.90;51.20;;;;;;4996294;28;20041;-73
2022/07/09 12:37:41;;;;;;;6.25;1.30;;;22.90;50.30;;;;;;5012674;28;20120;-72
2022/07/09 12:40:09;;;;;;;3.95;1.00;;;22.80;49.90;;;;;;5011497;28;20141;-72
2022/07/09 12:42:35;;;;;;;8.38;1.75;;;22.80;50.50;;;;;;4990026;28;20069;-72
2022/07/09 12:45:01;;;;;;;4.50;1.02;;;22.80;50.30;;;;;;4991498;28;20042;-72
2022/07/09 12:47:27;;;;;;;4.13;0.90;;;22.80;50.20;;;;;;4991895;28;20486;-72